Terminal Aerodrome Forecast
Issued by NWS

Home | Current Version | Previous Version | Text Only | Print | Product List | Glossary On
Versions: 1 2 3 4 5 6 7 8 9 10 11 12 13 14 15 16 17 18 19 20 21 22 23 24 25
000
FTUS41 KOKX 190500 RRA
TAFHPN
TAF
KHPN 190548Z 1906/2006 36010KT P6SM SCT070
     FM191500 05009KT P6SM FEW030 SCT050
     FM191800 10008KT P6SM FEW035
     FM192100 13007KT P6SM SCT035
     FM200300 12005KT P6SM SCT030
      AMD NOT SKED=

USA.gov is the U.S. government's official web portal to all federal, state and local government web resources and services.